createdAt,value
2023-01-13T00:04:48.251Z,-64
2023-01-13T00:09:50.088Z,-64
2023-01-13T00:14:51.853Z,-65
2023-01-13T00:19:53.794Z,-64
2023-01-13T00:24:58.147Z,-65
2023-01-13T00:30:00.073Z,-64
2023-01-13T00:35:03.796Z,-64
2023-01-13T00:40:05.844Z,-65
2023-01-13T00:45:07.778Z,-65
2023-01-13T00:50:09.968Z,-65
2023-01-13T00:55:12.041Z,-64
2023-01-13T01:00:14.635Z,-64
2023-01-13T01:05:16.462Z,-65
2023-01-13T01:10:18.282Z,-64
2023-01-13T01:15:20.035Z,-64
2023-01-13T01:20:21.988Z,-65
2023-01-13T01:25:23.776Z,-65
2023-01-13T01:30:25.573Z,-64
2023-01-13T01:35:28.579Z,-64
2023-01-13T01:40:30.374Z,-65
2023-01-13T01:45:32.333Z,-64
2023-01-13T01:50:34.281Z,-64
2023-01-13T01:55:37.183Z,-63
2023-01-13T02:00:39.371Z,-63
2023-01-13T02:05:41.334Z,-62
2023-01-13T02:10:45.436Z,-63
2023-01-13T02:15:51.894Z,-63
2023-01-13T02:21:03.369Z,-63
2023-01-13T02:26:16.463Z,-63
2023-01-13T02:31:37.185Z,-63
2023-01-13T02:36:57.765Z,-64
2023-01-13T02:42:18.590Z,-65
2023-01-13T02:47:22.008Z,-64
2023-01-13T02:52:33.214Z,-63
2023-01-13T02:57:36.661Z,-63
2023-01-13T03:02:38.766Z,-63
2023-01-13T03:07:40.539Z,-64
2023-01-13T03:13:00.957Z,-65
2023-01-13T03:18:13.816Z,-65
2023-01-13T03:23:21.712Z,-65
2023-01-13T03:28:26.295Z,-63
2023-01-13T03:33:54.165Z,-64
2023-01-13T03:39:03.013Z,-65
2023-01-13T03:44:32.948Z,-65
2023-01-13T03:49:40.847Z,-65
2023-01-13T03:54:50.361Z,-65
2023-01-13T03:59:54.718Z,-65
2023-01-13T04:05:03.515Z,-64
2023-01-13T04:10:07.072Z,-65
2023-01-13T04:15:09.572Z,-65
2023-01-13T04:20:11.454Z,-65
2023-01-13T04:25:13.456Z,-65
2023-01-13T04:30:15.314Z,-65
2023-01-13T04:35:17.103Z,-65
2023-01-13T04:40:18.961Z,-65
2023-01-13T04:45:20.789Z,-65
2023-01-13T04:50:22.837Z,-64
2023-01-13T04:55:25.083Z,-64
2023-01-13T05:00:26.857Z,-64
2023-01-13T05:05:29.086Z,-64
2023-01-13T05:10:30.988Z,-63
2023-01-13T05:15:51.477Z,-64
2023-01-13T05:20:53.643Z,-65
2023-01-13T05:25:55.953Z,-65
2023-01-13T05:30:57.825Z,-64
2023-01-13T05:36:01.773Z,-63
2023-01-13T05:41:22.165Z,-65
2023-01-13T05:46:24.030Z,-65
2023-01-13T05:51:26.405Z,-64
2023-01-13T05:56:28.337Z,-66
2023-01-13T06:01:30.190Z,-65
2023-01-13T06:06:31.965Z,-65
2023-01-13T06:11:33.751Z,-64
2023-01-13T06:16:35.603Z,-63
2023-01-13T06:21:37.384Z,-63
2023-01-13T06:26:40.855Z,-64
2023-01-13T06:31:42.910Z,-64
2023-01-13T06:36:47.694Z,-64
2023-01-13T06:42:09.233Z,-65
2023-01-13T06:47:11.016Z,-65
2023-01-13T06:52:12.778Z,-64
2023-01-13T06:57:14.517Z,-64
2023-01-13T07:02:16.356Z,-64
2023-01-13T07:07:18.596Z,-64
2023-01-13T07:12:20.359Z,-65
2023-01-13T07:17:25.380Z,-65
2023-01-13T07:22:27.266Z,-66
2023-01-13T07:27:29.353Z,-64
2023-01-13T07:32:34.475Z,-64
2023-01-13T07:37:37.224Z,-64
2023-01-13T07:42:57.596Z,-64
2023-01-13T07:47:59.359Z,-65
2023-01-13T07:53:01.134Z,-66
2023-01-13T07:58:03.079Z,-64
2023-01-13T08:03:04.907Z,-64
2023-01-13T08:08:07.066Z,-65
2023-01-13T08:13:20.235Z,-66
2023-01-13T08:18:22.448Z,-62
2023-01-13T08:23:24.608Z,-63
2023-01-13T08:28:26.659Z,-60
2023-01-13T08:33:29.098Z,-62
2023-01-13T08:38:31.034Z,-63
2023-01-13T08:43:32.852Z,-65
2023-01-13T08:48:34.651Z,-65
2023-01-13T08:53:36.700Z,-64
2023-01-13T08:58:38.854Z,-63
2023-01-13T09:03:41.930Z,-63
2023-01-13T09:08:43.756Z,-64
2023-01-13T09:13:45.653Z,-63
2023-01-13T09:18:47.463Z,-64
2023-01-13T09:23:49.299Z,-65
2023-01-13T09:28:51.284Z,-65
2023-01-13T09:34:11.438Z,-65
2023-01-13T09:39:13.597Z,-66
2023-01-13T09:44:33.780Z,-67
2023-01-13T09:49:37.828Z,-66
2023-01-13T09:54:42.430Z,-66
2023-01-13T09:59:46.054Z,-66
2023-01-13T10:05:06.166Z,-66
2023-01-13T10:10:11.263Z,-66
2023-01-13T10:15:17.640Z,-66
2023-01-13T10:20:19.938Z,-66
2023-01-13T10:25:21.807Z,-66
2023-01-13T10:30:31.461Z,-69
2023-01-13T10:35:52.455Z,-67
2023-01-13T10:40:58.610Z,-66
2023-01-13T10:46:02.750Z,-66
2023-01-13T10:51:10.569Z,-66
2023-01-13T10:56:16.568Z,-61
2023-01-13T11:01:21.036Z,-62
2023-01-13T11:06:27.899Z,-62
2023-01-13T11:11:43.505Z,-63
2023-01-13T11:16:52.888Z,-61
2023-01-13T11:21:55.229Z,-61
2023-01-13T11:27:00.851Z,-62
2023-01-13T11:32:22.445Z,-64
2023-01-13T11:37:24.254Z,-63
2023-01-13T11:42:28.864Z,-61
2023-01-13T11:47:31.531Z,-62
2023-01-13T11:52:45.485Z,-63
2023-01-13T11:57:47.312Z,-63
2023-01-13T12:02:57.039Z,-61
2023-01-13T12:08:03.506Z,-62
2023-01-13T12:13:14.658Z,-61
2023-01-13T12:18:40.799Z,-63
2023-01-13T12:23:51.550Z,-64
2023-01-13T12:28:58.220Z,-64
2023-01-13T12:34:03.025Z,-62
2023-01-13T12:39:11.808Z,-62
2023-01-13T12:44:20.432Z,-63
2023-01-13T12:49:33.087Z,-62
2023-01-13T12:54:40.952Z,-62
2023-01-13T13:00:05.518Z,-62
2023-01-13T13:05:25.367Z,-61
2023-01-13T13:10:41.694Z,-65
2023-01-13T13:15:44.217Z,-62
2023-01-13T13:20:55.315Z,-63
2023-01-13T13:26:03.139Z,-62
2023-01-13T13:31:15.366Z,-62
2023-01-13T13:36:52.860Z,-64
2023-01-13T13:42:17.099Z,-61
2023-01-13T13:47:18.963Z,-64
2023-01-13T13:52:25.773Z,-63
2023-01-13T13:57:33.679Z,-61
2023-01-13T14:02:37.277Z,-63
2023-01-13T14:07:43.721Z,-61
2023-01-13T14:12:45.658Z,-62
2023-01-13T14:17:47.436Z,-62
2023-01-13T14:22:50.937Z,-62
2023-01-13T14:27:53.371Z,-63
2023-01-13T14:32:55.891Z,-63
2023-01-13T14:38:01.784Z,-63
2023-01-13T14:43:04.573Z,-63
2023-01-13T14:48:08.499Z,-63
2023-01-13T14:53:30.686Z,-63
2023-01-13T14:58:32.488Z,-62
2023-01-13T15:03:42.349Z,-64
2023-01-13T15:08:44.724Z,-63
2023-01-13T15:13:55.028Z,-62
2023-01-13T15:18:57.895Z,-64
2023-01-13T15:23:59.943Z,-63
2023-01-13T15:29:03.503Z,-63
2023-01-13T15:34:05.246Z,-64
2023-01-13T15:39:07.373Z,-63
2023-01-13T15:44:29.350Z,-63
2023-01-13T15:49:35.457Z,-64
2023-01-13T15:54:37.368Z,-63
2023-01-13T15:59:39.227Z,-62
2023-01-13T16:04:40.988Z,-63
2023-01-13T16:09:43.630Z,-63
2023-01-13T16:14:45.598Z,-63
2023-01-13T16:19:47.529Z,-63
2023-01-13T16:24:49.583Z,-63
2023-01-13T16:29:52.000Z,-64
2023-01-13T16:34:54.228Z,-63
2023-01-13T16:39:56.277Z,-62
2023-01-13T16:44:58.882Z,-63
2023-01-13T16:50:00.914Z,-63
2023-01-13T16:55:03.059Z,-63
2023-01-13T17:00:06.528Z,-63
2023-01-13T17:05:10.353Z,-61
2023-01-13T17:10:16.181Z,-64
2023-01-13T17:15:19.434Z,-64
2023-01-13T17:20:21.230Z,-64
2023-01-13T17:25:23.099Z,-64
2023-01-13T17:30:25.001Z,-64
2023-01-13T17:35:26.756Z,-64
2023-01-13T17:40:28.745Z,-64
2023-01-13T17:45:30.708Z,-64
2023-01-13T17:50:34.059Z,-64
2023-01-13T17:55:35.838Z,-64
2023-01-13T18:00:37.729Z,-64
2023-01-13T18:05:41.002Z,-64
2023-01-13T18:10:42.990Z,-65
2023-01-13T18:15:44.977Z,-64
2023-01-13T18:21:05.419Z,-63
2023-01-13T18:26:32.527Z,-64
2023-01-13T18:31:34.461Z,-61
2023-01-13T18:36:36.979Z,-61
2023-01-13T18:41:57.493Z,-59
2023-01-13T18:46:59.246Z,-59
2023-01-13T18:52:01.077Z,-61
2023-01-13T18:57:03.095Z,-58
2023-01-13T19:02:09.396Z,-59
2023-01-13T19:07:22.399Z,-59
2023-01-13T19:12:26.065Z,-60
2023-01-13T19:17:30.962Z,-61
2023-01-13T19:22:33.838Z,-60
2023-01-13T19:27:35.661Z,-61
2023-01-13T19:32:37.507Z,-60
2023-01-13T19:37:40.408Z,-60
2023-01-13T19:43:01.664Z,-59
2023-01-13T19:48:05.831Z,-60
2023-01-13T19:53:14.290Z,-59
2023-01-13T19:58:18.743Z,-62
2023-01-13T20:03:24.233Z,-60
2023-01-13T20:08:26.443Z,-61
2023-01-13T20:13:32.044Z,-60
2023-01-13T20:18:36.521Z,-60
2023-01-13T20:23:38.382Z,-60
2023-01-13T20:28:40.294Z,-61
2023-01-13T20:33:43.772Z,-61
2023-01-13T20:38:45.521Z,-60
2023-01-13T20:43:49.027Z,-62
2023-01-13T20:48:51.045Z,-59
2023-01-13T20:53:52.815Z,-60
2023-01-13T20:58:54.721Z,-60
2023-01-13T21:03:57.147Z,-60
2023-01-13T21:08:59.260Z,-59
2023-01-13T21:14:19.590Z,-60
2023-01-13T21:19:21.337Z,-59
2023-01-13T21:24:23.509Z,-59
2023-01-13T21:29:25.325Z,-59
2023-01-13T21:34:27.222Z,-59
2023-01-13T21:39:29.014Z,-59
2023-01-13T21:44:49.523Z,-60
2023-01-13T21:49:51.386Z,-60
2023-01-13T21:55:11.706Z,-59
2023-01-13T22:00:13.749Z,-58
2023-01-13T22:05:16.880Z,-59
2023-01-13T22:10:22.751Z,-59
2023-01-13T22:15:29.498Z,-59
2023-01-13T22:20:31.257Z,-59
2023-01-13T22:25:33.035Z,-60
2023-01-13T22:30:35.049Z,-60
2023-01-13T22:35:38.404Z,-60
2023-01-13T22:40:40.168Z,-60
2023-01-13T22:45:42.053Z,-59
2023-01-13T22:50:44.279Z,-59
2023-01-13T22:55:59.401Z,-59
2023-01-13T23:01:20.501Z,-59
2023-01-13T23:06:26.954Z,-59
2023-01-13T23:11:29.590Z,-59
2023-01-13T23:16:32.804Z,-58
2023-01-13T23:21:36.758Z,-59
2023-01-13T23:26:38.608Z,-59
2023-01-13T23:31:40.481Z,-60
2023-01-13T23:36:43.776Z,-60
2023-01-13T23:41:45.541Z,-60
2023-01-13T23:46:47.515Z,-60
2023-01-13T23:51:52.462Z,-61
2023-01-13T23:56:54.282Z,-60
